createdAt,value
2023-06-21T00:00:05.132Z,46.41
2023-06-21T00:01:05.188Z,46.30
2023-06-21T00:02:05.123Z,46.95
2023-06-21T00:03:05.257Z,46.99
2023-06-21T00:04:05.451Z,46.66
2023-06-21T00:05:05.288Z,46.57
2023-06-21T00:06:05.288Z,47.01
2023-06-21T00:07:05.463Z,46.90
2023-06-21T00:08:05.442Z,47.14
2023-06-21T00:09:05.507Z,47.78
2023-06-21T00:10:05.578Z,48.22
2023-06-21T00:11:05.556Z,48.31
2023-06-21T00:12:05.635Z,48.86
2023-06-21T00:13:05.639Z,48.76
2023-06-21T00:14:05.684Z,48.72
2023-06-21T00:15:05.724Z,49.00
2023-06-21T00:16:05.694Z,49.01
2023-06-21T00:17:05.768Z,48.76
2023-06-21T00:18:05.844Z,48.35
2023-06-21T00:19:05.759Z,48.23
2023-06-21T00:20:05.883Z,48.23
2023-06-21T00:21:05.943Z,48.32
2023-06-21T00:22:06.055Z,48.45
2023-06-21T00:23:06.072Z,47.81
2023-06-21T00:24:06.171Z,47.90
2023-06-21T00:25:06.249Z,47.67
2023-06-21T00:26:06.278Z,47.60
2023-06-21T00:27:06.330Z,47.96
2023-06-21T00:28:06.373Z,47.64
2023-06-21T00:29:06.456Z,48.01
2023-06-21T00:30:06.431Z,48.17
2023-06-21T00:31:06.500Z,48.17
2023-06-21T00:32:06.592Z,48.31
2023-06-21T00:33:06.642Z,48.32
2023-06-21T00:34:06.647Z,48.24
2023-06-21T00:35:06.680Z,48.48
2023-06-21T00:36:06.601Z,48.93
2023-06-21T00:37:06.689Z,48.55
2023-06-21T00:38:06.670Z,48.75
2023-06-21T00:39:06.741Z,48.64
2023-06-21T00:40:06.635Z,49.47
2023-06-21T00:41:06.612Z,49.62
2023-06-21T00:42:06.647Z,49.49
2023-06-21T00:43:06.729Z,49.47
2023-06-21T00:44:06.602Z,49.42
2023-06-21T00:45:06.649Z,49.36
2023-06-21T00:46:06.694Z,49.06
2023-06-21T00:47:06.761Z,49.24
2023-06-21T00:48:06.732Z,49.42
2023-06-21T00:49:06.718Z,49.52
2023-06-21T00:50:06.646Z,49.54
2023-06-21T00:51:06.659Z,49.13
2023-06-21T00:52:06.704Z,49.13
2023-06-21T00:53:06.659Z,48.99
2023-06-21T00:54:06.634Z,48.78
2023-06-21T00:55:06.638Z,48.46
2023-06-21T00:56:06.648Z,48.38
2023-06-21T00:57:06.687Z,48.53
2023-06-21T00:58:06.666Z,48.18
2023-06-21T00:59:06.763Z,48.47
2023-06-21T01:00:06.715Z,48.62
2023-06-21T01:01:06.897Z,48.21
2023-06-21T01:02:06.894Z,47.95
2023-06-21T01:03:06.954Z,47.78
2023-06-21T01:04:06.901Z,48.11
2023-06-21T01:05:06.988Z,48.21
2023-06-21T01:06:06.916Z,48.12
2023-06-21T01:07:06.927Z,48.28
2023-06-21T01:08:07.045Z,47.99
2023-06-21T01:09:07.051Z,48.18
2023-06-21T01:10:07.141Z,48.04
2023-06-21T01:11:07.197Z,47.91
2023-06-21T01:12:07.273Z,48.03
2023-06-21T01:13:07.276Z,47.98
2023-06-21T01:14:07.321Z,47.78
2023-06-21T01:15:07.307Z,47.67
2023-06-21T01:16:07.253Z,47.60
2023-06-21T01:17:07.370Z,47.80
2023-06-21T01:18:07.380Z,47.90
2023-06-21T01:19:07.405Z,47.90
2023-06-21T01:20:07.485Z,47.75
2023-06-21T01:21:07.567Z,47.63
2023-06-21T01:22:07.537Z,47.83
2023-06-21T01:23:07.614Z,47.73
2023-06-21T01:24:07.762Z,47.68
2023-06-21T01:25:07.698Z,47.51
2023-06-21T01:26:07.771Z,47.70
2023-06-21T01:27:07.897Z,47.38
2023-06-21T01:28:07.851Z,47.48
2023-06-21T01:29:07.806Z,47.52
2023-06-21T01:30:07.817Z,47.30
2023-06-21T01:31:07.899Z,46.97
2023-06-21T01:32:07.847Z,46.81
2023-06-21T01:33:07.833Z,46.79
2023-06-21T01:34:07.792Z,46.75
2023-06-21T01:35:10.137Z,46.63
2023-06-21T01:36:07.792Z,46.60
2023-06-21T01:37:07.830Z,46.62
2023-06-21T01:38:08.638Z,46.55
2023-06-21T01:39:07.760Z,46.44
2023-06-21T01:40:07.737Z,45.65
2023-06-21T01:41:07.710Z,45.99
2023-06-21T01:42:07.705Z,46.15
2023-06-21T01:43:07.785Z,45.88
2023-06-21T01:44:07.770Z,47.39
2023-06-21T01:45:07.680Z,46.77
2023-06-21T01:46:07.884Z,46.38
2023-06-21T01:47:07.720Z,45.97
2023-06-21T01:48:07.725Z,46.05
2023-06-21T01:49:07.692Z,45.95
2023-06-21T01:50:07.685Z,45.58
2023-06-21T01:51:07.741Z,45.80
2023-06-21T01:52:07.679Z,45.83
2023-06-21T01:53:07.654Z,45.96
2023-06-21T01:54:07.732Z,45.93
2023-06-21T01:55:07.692Z,45.95
2023-06-21T01:56:07.738Z,46.43
2023-06-21T01:57:07.650Z,46.94
2023-06-21T01:58:07.666Z,46.89
2023-06-21T01:59:07.664Z,46.89
2023-06-21T02:00:07.687Z,46.78
2023-06-21T02:01:07.713Z,46.78
2023-06-21T02:02:07.745Z,46.54
2023-06-21T02:03:07.783Z,46.37
2023-06-21T02:04:07.796Z,46.44
2023-06-21T02:05:07.885Z,47.10
2023-06-21T02:06:07.914Z,47.17
2023-06-21T02:07:07.964Z,47.24
2023-06-21T02:08:08.070Z,47.67
2023-06-21T02:09:08.082Z,48.03
2023-06-21T02:10:08.119Z,48.85
2023-06-21T02:11:08.164Z,49.31
2023-06-21T02:12:08.206Z,49.89
2023-06-21T02:13:08.181Z,50.35
2023-06-21T02:14:08.201Z,51.28
2023-06-21T02:15:08.155Z,51.53
2023-06-21T02:16:08.105Z,51.70
2023-06-21T02:17:08.646Z,51.72
2023-06-21T02:18:08.145Z,51.91
2023-06-21T02:19:08.125Z,52.29
2023-06-21T02:20:08.166Z,52.31
2023-06-21T02:21:08.162Z,51.98
2023-06-21T02:22:08.120Z,51.55
2023-06-21T02:23:08.156Z,51.32
2023-06-21T02:24:08.177Z,51.11
2023-06-21T02:25:08.098Z,51.23
2023-06-21T02:26:08.139Z,51.65
2023-06-21T02:27:08.177Z,52.12
2023-06-21T02:28:08.110Z,51.62
2023-06-21T02:29:08.108Z,51.80
2023-06-21T02:30:08.106Z,51.98
2023-06-21T02:31:08.099Z,51.79
2023-06-21T02:32:08.031Z,51.44
2023-06-21T02:33:08.046Z,51.82
2023-06-21T02:34:08.121Z,51.94
2023-06-21T02:35:08.043Z,52.15
2023-06-21T02:36:08.055Z,52.18
2023-06-21T02:37:08.014Z,52.03
2023-06-21T02:38:08.152Z,51.96
2023-06-21T02:39:08.028Z,51.76
2023-06-21T02:40:08.032Z,51.57
2023-06-21T02:41:08.077Z,51.45
2023-06-21T02:42:08.664Z,51.39
2023-06-21T02:43:08.016Z,51.29
2023-06-21T02:44:07.994Z,51.28
2023-06-21T02:45:08.001Z,51.07
2023-06-21T02:46:08.078Z,51.02
2023-06-21T02:47:07.998Z,51.08
2023-06-21T02:48:08.140Z,51.39
2023-06-21T02:49:08.026Z,51.45
2023-06-21T02:50:07.980Z,51.35
2023-06-21T02:51:07.994Z,51.18
2023-06-21T02:52:08.014Z,51.18
2023-06-21T02:53:08.063Z,51.18
2023-06-21T02:54:08.075Z,51.16
2023-06-21T02:55:08.130Z,51.17
2023-06-21T02:56:08.159Z,51.30
2023-06-21T02:57:08.130Z,51.09
2023-06-21T02:58:08.143Z,51.12
2023-06-21T02:59:08.168Z,50.82
2023-06-21T03:00:08.125Z,50.77
2023-06-21T03:01:08.210Z,50.68
2023-06-21T03:02:08.190Z,50.85
2023-06-21T03:03:08.283Z,50.78
2023-06-21T03:04:08.141Z,50.76
2023-06-21T03:05:08.186Z,51.03
2023-06-21T03:06:08.103Z,52.10
2023-06-21T03:07:08.057Z,51.35
2023-06-21T03:08:08.090Z,51.38
2023-06-21T03:09:08.008Z,51.20
2023-06-21T03:10:08.020Z,51.08
2023-06-21T03:11:08.061Z,51.00
2023-06-21T03:12:08.031Z,51.17
2023-06-21T03:13:08.067Z,50.95
2023-06-21T03:14:08.043Z,50.82
2023-06-21T03:15:08.021Z,50.91
2023-06-21T03:16:08.018Z,51.10
2023-06-21T03:17:08.022Z,51.07
2023-06-21T03:18:08.053Z,51.03
2023-06-21T03:19:08.112Z,50.95
2023-06-21T03:20:08.056Z,50.76
2023-06-21T03:21:07.996Z,50.77
2023-06-21T03:22:07.976Z,50.59
2023-06-21T03:23:07.957Z,50.34
2023-06-21T03:24:07.994Z,50.26
2023-06-21T03:25:07.912Z,50.09
2023-06-21T03:26:07.921Z,49.95
2023-06-21T03:27:07.920Z,49.86
2023-06-21T03:28:07.928Z,49.86
2023-06-21T03:29:08.047Z,49.86
2023-06-21T03:30:07.940Z,50.00
2023-06-21T03:31:07.913Z,49.94
2023-06-21T03:32:07.928Z,49.98
2023-06-21T03:33:08.009Z,50.12
2023-06-21T03:34:07.943Z,50.16
2023-06-21T03:35:07.901Z,50.24
2023-06-21T03:36:07.922Z,50.33
2023-06-21T03:37:07.980Z,50.41
2023-06-21T03:38:08.053Z,50.29
2023-06-21T03:39:08.033Z,50.29
2023-06-21T03:40:08.179Z,50.29
2023-06-21T03:41:08.134Z,50.19
2023-06-21T03:42:08.218Z,50.13
2023-06-21T03:43:08.208Z,50.06
2023-06-21T03:44:08.256Z,50.14
2023-06-21T03:45:08.289Z,50.29
2023-06-21T03:46:08.266Z,50.45
2023-06-21T03:47:08.163Z,50.41
2023-06-21T03:48:08.250Z,50.78
2023-06-21T03:49:08.208Z,50.85
2023-06-21T03:50:08.213Z,50.80
2023-06-21T03:51:08.136Z,50.79
2023-06-21T03:52:09.171Z,50.80
2023-06-21T03:53:08.181Z,50.80
2023-06-21T03:54:08.166Z,50.90
2023-06-21T03:55:08.144Z,51.80
2023-06-21T03:56:08.183Z,52.25
2023-06-21T03:57:08.147Z,53.27
2023-06-21T03:58:08.122Z,53.34
2023-06-21T03:59:08.117Z,53.46
2023-06-21T04:00:08.121Z,53.67
2023-06-21T04:01:08.147Z,53.72
2023-06-21T04:02:08.126Z,54.11
2023-06-21T04:03:08.245Z,54.15
2023-06-21T04:04:08.189Z,54.42
2023-06-21T04:05:08.104Z,54.12
2023-06-21T04:06:08.043Z,54.01
2023-06-21T04:07:08.076Z,53.97
2023-06-21T04:08:08.229Z,53.82
2023-06-21T04:09:09.039Z,53.81
2023-06-21T04:10:07.989Z,53.64
2023-06-21T04:11:08.026Z,53.56
2023-06-21T04:12:08.075Z,53.56
2023-06-21T04:13:08.053Z,53.27
2023-06-21T04:14:08.052Z,53.33
2023-06-21T04:15:08.092Z,53.05
2023-06-21T04:16:08.028Z,53.17
2023-06-21T04:17:08.009Z,52.93
2023-06-21T04:18:08.128Z,52.78
2023-06-21T04:19:08.048Z,51.38
2023-06-21T04:20:08.032Z,50.78
2023-06-21T04:21:07.990Z,50.84
2023-06-21T04:22:07.973Z,50.49
2023-06-21T04:23:08.042Z,50.37
2023-06-21T04:24:08.008Z,50.29
2023-06-21T04:25:07.979Z,50.19
2023-06-21T04:26:07.909Z,50.14
2023-06-21T04:27:07.949Z,50.07
2023-06-21T04:28:08.063Z,49.95
2023-06-21T04:29:07.978Z,49.98
2023-06-21T04:30:07.942Z,50.04
2023-06-21T04:31:07.929Z,49.99
2023-06-21T04:32:08.005Z,49.93
2023-06-21T04:33:08.081Z,50.01
2023-06-21T04:34:08.093Z,49.93
2023-06-21T04:35:08.139Z,49.98
2023-06-21T04:36:08.234Z,50.00
2023-06-21T04:37:08.226Z,49.89
2023-06-21T04:38:08.323Z,49.93
2023-06-21T04:39:08.390Z,49.84
2023-06-21T04:40:16.964Z,49.83
2023-06-21T04:41:09.354Z,49.74
2023-06-21T04:42:08.339Z,49.82
2023-06-21T04:43:08.377Z,49.55
2023-06-21T04:44:08.326Z,49.56
2023-06-21T04:45:08.307Z,49.38
2023-06-21T04:46:08.386Z,49.32
2023-06-21T04:47:08.279Z,49.17
2023-06-21T04:48:08.336Z,49.03
2023-06-21T04:49:08.367Z,49.09
2023-06-21T04:50:20.258Z,49.41
2023-06-21T04:51:09.271Z,49.47
2023-06-21T04:52:08.238Z,49.58
2023-06-21T04:53:08.316Z,49.50
2023-06-21T04:54:08.352Z,49.37
2023-06-21T04:55:08.224Z,49.25
2023-06-21T04:56:08.261Z,49.12
2023-06-21T04:57:08.193Z,49.14
2023-06-21T04:58:08.321Z,49.23
2023-06-21T04:59:08.221Z,49.51
2023-06-21T05:01:37.891Z,49.66
2023-06-21T05:02:27.778Z,49.66
2023-06-21T05:03:27.846Z,49.74
2023-06-21T05:04:27.750Z,49.61
2023-06-21T05:05:27.699Z,49.42
2023-06-21T05:06:27.704Z,49.12
2023-06-21T05:07:27.705Z,48.92
2023-06-21T05:08:27.706Z,48.93
2023-06-21T05:09:27.713Z,48.60
2023-06-21T05:10:27.957Z,48.47
2023-06-21T05:11:27.693Z,48.68
2023-06-21T05:12:27.647Z,49.09
2023-06-21T05:13:27.711Z,49.21
2023-06-21T05:14:27.660Z,49.42
2023-06-21T05:15:27.665Z,49.65
2023-06-21T05:16:27.779Z,49.14
2023-06-21T05:17:27.663Z,49.55
2023-06-21T05:18:27.750Z,49.56
2023-06-21T05:19:27.677Z,50.38
2023-06-21T05:20:27.888Z,50.46
2023-06-21T05:21:27.673Z,50.42
2023-06-21T05:22:27.646Z,50.33
2023-06-21T05:23:28.007Z,50.11
2023-06-21T05:24:28.923Z,49.90
2023-06-21T05:25:27.891Z,50.11
2023-06-21T05:26:27.709Z,49.73
2023-06-21T05:27:27.605Z,49.49
2023-06-21T05:28:27.630Z,49.34
2023-06-21T05:29:27.554Z,49.48
2023-06-21T05:30:27.760Z,49.43
2023-06-21T05:31:27.740Z,49.11
2023-06-21T05:32:27.677Z,49.02
2023-06-21T05:33:28.070Z,48.96
2023-06-21T05:34:27.614Z,48.77
2023-06-21T05:35:27.661Z,48.75
2023-06-21T05:36:27.698Z,48.78
2023-06-21T05:37:27.847Z,48.77
2023-06-21T05:38:27.602Z,48.52
2023-06-21T05:39:28.422Z,48.69
2023-06-21T05:40:27.915Z,48.52
2023-06-21T05:41:28.430Z,48.63
2023-06-21T05:42:27.572Z,48.39
2023-06-21T05:43:28.117Z,48.33
2023-06-21T05:44:27.502Z,47.95
2023-06-21T05:46:57.721Z,47.70
2023-06-21T05:47:46.986Z,47.38
2023-06-21T05:48:46.985Z,47.49
2023-06-21T05:49:47.020Z,47.24
2023-06-21T05:50:47.952Z,47.52
2023-06-21T05:51:47.340Z,48.42
2023-06-21T05:52:48.073Z,48.75
2023-06-21T05:53:47.278Z,48.55
2023-06-21T05:54:46.886Z,49.04
2023-06-21T05:55:47.085Z,48.88
2023-06-21T05:56:46.929Z,48.36
2023-06-21T05:57:46.927Z,48.19
2023-06-21T05:58:47.893Z,48.20
2023-06-21T05:59:46.969Z,48.08
2023-06-21T06:00:46.889Z,47.71
2023-06-21T06:01:46.866Z,47.57
2023-06-21T06:02:47.061Z,47.74
2023-06-21T06:03:47.554Z,48.10
2023-06-21T06:04:46.825Z,47.96
2023-06-21T06:05:46.931Z,47.97
2023-06-21T06:06:46.931Z,48.79
2023-06-21T06:07:47.037Z,48.39
2023-06-21T06:08:46.749Z,48.27
2023-06-21T06:09:46.883Z,48.02
2023-06-21T06:10:46.770Z,47.74
2023-06-21T06:11:46.894Z,47.32
2023-06-21T06:12:46.995Z,46.80
2023-06-21T06:13:46.978Z,46.67
2023-06-21T06:14:47.703Z,46.31
2023-06-21T06:15:47.418Z,46.23
2023-06-21T06:16:46.896Z,45.77
2023-06-21T06:17:46.835Z,45.67
2023-06-21T06:18:46.926Z,45.22
2023-06-21T06:19:47.250Z,45.02
2023-06-21T06:20:48.682Z,45.24
2023-06-21T06:21:47.080Z,45.13
2023-06-21T06:22:47.145Z,45.01
2023-06-21T06:23:46.937Z,44.91
2023-06-21T06:24:46.977Z,44.68
2023-06-21T06:25:47.197Z,44.47
2023-06-21T06:26:47.787Z,44.52
2023-06-21T06:27:47.059Z,44.49
2023-06-21T06:28:47.101Z,44.34
2023-06-21T06:29:47.543Z,44.61
2023-06-21T06:30:47.966Z,44.37
2023-06-21T06:31:47.345Z,44.35
2023-06-21T06:32:47.088Z,44.14
2023-06-21T06:33:48.040Z,43.93
2023-06-21T06:34:47.244Z,44.21
2023-06-21T06:35:47.352Z,44.25
2023-06-21T06:36:56.191Z,43.85
2023-06-21T06:43:13.310Z,42.71
2023-06-21T06:44:04.393Z,42.68
2023-06-21T06:45:04.470Z,42.55
2023-06-21T06:46:04.513Z,42.53
2023-06-21T06:47:04.281Z,42.06
2023-06-21T06:48:04.387Z,41.79
2023-06-21T06:49:04.315Z,41.89
2023-06-21T06:50:04.246Z,42.11
2023-06-21T06:51:04.574Z,41.99
2023-06-21T06:52:04.287Z,41.66
2023-06-21T06:53:04.898Z,41.48
2023-06-21T06:54:04.517Z,40.96
2023-06-21T06:55:04.454Z,41.01
2023-06-21T06:56:04.601Z,40.76
2023-06-21T06:57:04.494Z,40.93
2023-06-21T06:58:06.569Z,41.21
2023-06-21T06:59:04.514Z,40.52
2023-06-21T07:00:04.619Z,40.33
2023-06-21T07:01:05.027Z,40.66
2023-06-21T07:02:05.530Z,40.14
2023-06-21T07:03:04.729Z,40.29
2023-06-21T07:04:04.852Z,40.21
2023-06-21T07:05:04.787Z,40.02
2023-06-21T07:06:04.852Z,39.93
2023-06-21T07:07:06.293Z,40.31
2023-06-21T07:08:04.882Z,40.08
2023-06-21T07:09:04.781Z,40.04
2023-06-21T07:10:04.795Z,39.92
2023-06-21T07:11:05.009Z,39.92
2023-06-21T07:12:04.832Z,39.65
2023-06-21T07:13:04.828Z,40.00
2023-06-21T07:14:04.802Z,40.05
2023-06-21T07:15:05.329Z,40.14
2023-06-21T07:16:05.144Z,39.84
2023-06-21T07:17:04.937Z,39.37
2023-06-21T07:18:04.986Z,39.52
2023-06-21T07:19:04.754Z,39.27
2023-06-21T07:20:04.859Z,39.50
2023-06-21T07:21:04.990Z,39.36
2023-06-21T07:22:04.810Z,39.57
2023-06-21T07:23:05.311Z,39.21
2023-06-21T07:24:04.756Z,39.00
2023-06-21T07:25:04.786Z,38.60
2023-06-21T07:26:04.995Z,38.48
2023-06-21T07:27:04.717Z,38.68
2023-06-21T07:28:05.532Z,38.35
2023-06-21T07:29:04.742Z,37.99
2023-06-21T07:30:05.366Z,37.93
2023-06-21T07:31:04.773Z,38.55
2023-06-21T07:32:05.022Z,38.14
2023-06-21T07:33:05.622Z,38.18
2023-06-21T07:34:07.948Z,38.03
2023-06-21T07:35:05.823Z,38.01
2023-06-21T07:36:04.744Z,37.62
2023-06-21T07:37:04.971Z,37.49
2023-06-21T07:38:04.713Z,36.61
2023-06-21T07:39:05.888Z,36.38
2023-06-21T07:40:04.800Z,36.22
2023-06-21T07:41:04.720Z,36.19
2023-06-21T07:42:13.750Z,36.10
2023-06-21T07:43:04.627Z,36.22
2023-06-21T07:44:04.751Z,36.47
2023-06-21T07:45:05.507Z,36.60
2023-06-21T07:46:14.946Z,37.09
2023-06-21T07:47:04.663Z,36.96
2023-06-21T07:48:04.698Z,36.57
2023-06-21T07:49:04.848Z,37.25
2023-06-21T07:50:17.091Z,37.08
2023-06-21T07:51:05.772Z,37.29
2023-06-21T07:52:04.664Z,36.88
2023-06-21T07:53:04.607Z,36.83
2023-06-21T07:54:04.880Z,37.56
2023-06-21T07:55:04.561Z,37.36
2023-06-21T07:56:04.564Z,37.22
2023-06-21T07:57:04.651Z,37.05
2023-06-21T07:58:04.527Z,37.03
2023-06-21T07:59:04.595Z,36.81
2023-06-21T08:00:04.542Z,36.70
2023-06-21T08:01:04.572Z,36.79
2023-06-21T08:02:04.589Z,36.36
2023-06-21T08:03:04.677Z,36.24
2023-06-21T08:04:04.768Z,36.23
2023-06-21T08:05:04.717Z,36.03
2023-06-21T08:06:04.736Z,35.82
2023-06-21T08:07:05.458Z,35.57
2023-06-21T08:08:04.861Z,35.61
2023-06-21T08:09:04.872Z,35.74
2023-06-21T08:10:04.871Z,35.66
2023-06-21T08:11:04.880Z,35.99
2023-06-21T08:12:04.985Z,35.66
2023-06-21T08:13:05.023Z,35.98
2023-06-21T08:14:05.974Z,36.01
2023-06-21T08:15:05.014Z,35.81
2023-06-21T08:16:05.015Z,35.51
2023-06-21T08:17:05.064Z,35.85
2023-06-21T08:18:05.080Z,35.36
2023-06-21T08:19:05.096Z,35.31
2023-06-21T08:20:05.148Z,35.31
2023-06-21T08:21:05.155Z,35.60
2023-06-21T08:22:05.157Z,35.28
2023-06-21T08:23:05.135Z,35.33
2023-06-21T08:24:05.265Z,35.13
2023-06-21T08:25:05.303Z,34.60
2023-06-21T08:26:05.400Z,34.77
2023-06-21T08:27:05.454Z,34.66
2023-06-21T08:28:05.553Z,34.34
2023-06-21T08:29:05.620Z,33.88
2023-06-21T08:30:05.636Z,33.83
2023-06-21T08:31:05.686Z,34.18
2023-06-21T08:32:06.199Z,34.13
2023-06-21T08:33:05.830Z,34.20
2023-06-21T08:34:05.802Z,34.37
2023-06-21T08:35:05.824Z,34.58
2023-06-21T08:36:05.819Z,34.06
2023-06-21T08:37:06.149Z,33.76
2023-06-21T08:38:18.378Z,33.88
2023-06-21T08:39:05.981Z,34.09
2023-06-21T08:40:06.002Z,34.22
2023-06-21T08:41:05.916Z,34.31
2023-06-21T08:42:06.000Z,33.98
2023-06-21T08:43:05.946Z,33.86
2023-06-21T08:44:05.968Z,33.90
2023-06-21T08:45:05.886Z,34.04
2023-06-21T08:46:08.227Z,33.80
2023-06-21T08:47:06.062Z,33.69
2023-06-21T08:48:05.934Z,33.37
2023-06-21T08:49:05.890Z,32.90
2023-06-21T08:50:05.899Z,33.70
2023-06-21T08:51:05.979Z,33.76
2023-06-21T08:52:06.019Z,33.56
2023-06-21T08:53:05.884Z,33.52
2023-06-21T08:54:05.931Z,33.33
2023-06-21T08:55:05.869Z,33.29
2023-06-21T08:56:05.879Z,32.93
2023-06-21T08:57:06.055Z,32.82
2023-06-21T08:58:07.163Z,32.86
2023-06-21T08:59:06.525Z,32.84
2023-06-21T09:00:05.774Z,32.96
2023-06-21T09:01:05.861Z,32.53
2023-06-21T09:02:06.049Z,32.72
2023-06-21T09:03:06.052Z,33.17
2023-06-21T09:04:06.096Z,32.44
2023-06-21T09:05:05.856Z,31.99
2023-06-21T09:06:05.782Z,32.20
2023-06-21T09:07:05.813Z,32.77
2023-06-21T09:08:07.437Z,32.93
2023-06-21T09:09:06.115Z,32.97
2023-06-21T09:10:05.787Z,32.98
2023-06-21T09:11:05.727Z,33.13
2023-06-21T09:12:05.772Z,32.73
2023-06-21T09:13:05.708Z,32.74
2023-06-21T09:14:07.242Z,32.35
2023-06-21T09:15:05.747Z,32.53
2023-06-21T09:16:05.729Z,32.33
2023-06-21T09:17:05.722Z,32.09
2023-06-21T09:18:06.093Z,32.07
2023-06-21T09:19:05.741Z,32.16
2023-06-21T09:20:05.686Z,32.22
2023-06-21T09:21:05.669Z,32.29
2023-06-21T09:22:05.711Z,32.20
2023-06-21T09:23:05.686Z,32.70
2023-06-21T09:24:05.673Z,33.09
2023-06-21T09:25:05.661Z,32.90
2023-06-21T09:26:05.646Z,32.75
2023-06-21T09:27:05.676Z,32.79
2023-06-21T09:28:06.025Z,32.73
2023-06-21T09:29:05.602Z,32.91
2023-06-21T09:30:29.583Z,32.75
2023-06-21T09:31:06.665Z,33.41
2023-06-21T09:32:05.640Z,33.10
2023-06-21T09:33:05.763Z,33.60
2023-06-21T09:34:05.683Z,32.79
2023-06-21T09:35:05.670Z,32.18
2023-06-21T09:36:05.747Z,32.14
2023-06-21T09:37:05.618Z,32.14
2023-06-21T09:38:06.106Z,32.27
2023-06-21T09:39:05.584Z,32.14
2023-06-21T09:40:05.610Z,32.28
2023-06-21T09:41:05.741Z,32.06
2023-06-21T09:42:05.592Z,32.24
2023-06-21T09:43:06.047Z,31.95
2023-06-21T09:44:05.612Z,32.03
2023-06-21T09:45:05.704Z,31.89
2023-06-21T09:46:05.744Z,31.27
2023-06-21T09:47:05.738Z,31.48
2023-06-21T09:48:06.107Z,31.59
2023-06-21T09:49:05.787Z,32.05
2023-06-21T09:50:05.817Z,31.81
2023-06-21T09:51:05.901Z,31.51
2023-06-21T09:52:05.902Z,31.86
2023-06-21T09:53:05.938Z,31.85
2023-06-21T09:54:06.001Z,31.87
2023-06-21T09:55:06.013Z,31.75
2023-06-21T09:56:05.999Z,31.48
2023-06-21T09:57:06.005Z,31.26
2023-06-21T09:58:06.033Z,31.65
2023-06-21T09:59:06.142Z,31.47
2023-06-21T10:00:06.136Z,31.49
2023-06-21T10:01:06.140Z,31.65
2023-06-21T10:02:06.157Z,31.83
2023-06-21T10:03:06.658Z,31.76
2023-06-21T10:04:07.196Z,31.61
2023-06-21T10:05:06.186Z,31.41
2023-06-21T10:06:06.240Z,31.56
2023-06-21T10:07:06.202Z,31.48
2023-06-21T10:08:06.589Z,31.59
2023-06-21T10:09:06.353Z,31.35
2023-06-21T10:10:06.323Z,31.86
2023-06-21T10:11:06.392Z,31.89
2023-06-21T10:12:06.373Z,31.67
2023-06-21T10:13:06.551Z,31.57
2023-06-21T10:14:06.443Z,31.66
2023-06-21T10:15:06.476Z,31.63
2023-06-21T10:16:06.459Z,31.46
2023-06-21T10:17:06.532Z,31.34
2023-06-21T10:18:07.127Z,31.28
2023-06-21T10:19:06.584Z,30.89
2023-06-21T10:20:06.694Z,30.88
2023-06-21T10:21:06.825Z,30.78
2023-06-21T10:22:06.783Z,30.57
2023-06-21T10:23:06.933Z,30.44
2023-06-21T10:24:06.856Z,30.11
2023-06-21T10:25:06.977Z,29.93
2023-06-21T10:26:07.030Z,29.75
2023-06-21T10:27:07.059Z,30.21
2023-06-21T10:28:07.640Z,30.27
2023-06-21T10:29:07.151Z,30.64
2023-06-21T10:30:07.196Z,30.04
2023-06-21T10:31:07.244Z,30.34
2023-06-21T10:32:07.298Z,30.25
2023-06-21T10:33:07.663Z,30.46
2023-06-21T10:34:07.390Z,30.64
2023-06-21T10:35:07.370Z,30.66
2023-06-21T10:36:07.407Z,30.79
2023-06-21T10:37:07.626Z,30.87
2023-06-21T10:38:07.474Z,31.05
2023-06-21T10:39:07.611Z,31.16
2023-06-21T10:40:11.672Z,31.38
2023-06-21T10:41:07.639Z,31.14
2023-06-21T10:42:07.413Z,31.19
2023-06-21T10:43:07.366Z,31.34
2023-06-21T10:44:07.606Z,31.21
2023-06-21T10:45:07.377Z,31.21
2023-06-21T10:46:07.449Z,31.36
2023-06-21T10:47:07.371Z,30.96
2023-06-21T10:48:07.387Z,30.78
2023-06-21T10:49:07.618Z,31.01
2023-06-21T10:50:07.327Z,30.67
2023-06-21T10:51:07.331Z,30.62
2023-06-21T10:52:07.432Z,30.24
2023-06-21T10:53:07.427Z,30.61
2023-06-21T10:54:07.555Z,30.55
2023-06-21T10:55:07.459Z,30.86
2023-06-21T10:56:07.407Z,30.57
2023-06-21T10:57:07.460Z,30.37
2023-06-21T10:58:07.667Z,30.17
2023-06-21T10:59:07.533Z,29.89
2023-06-21T11:00:07.578Z,29.71
2023-06-21T11:01:07.614Z,29.76
2023-06-21T11:02:07.631Z,30.09
2023-06-21T11:03:07.735Z,29.92
2023-06-21T11:04:08.118Z,29.95
2023-06-21T11:05:07.821Z,30.27
2023-06-21T11:06:07.777Z,30.89
2023-06-21T11:07:07.829Z,31.01
2023-06-21T11:08:07.825Z,30.58
2023-06-21T11:09:08.099Z,30.65
2023-06-21T11:10:07.800Z,30.96
2023-06-21T11:11:07.775Z,30.17
2023-06-21T11:12:07.999Z,29.79
2023-06-21T11:13:08.923Z,29.30
2023-06-21T11:14:07.791Z,30.04
2023-06-21T11:15:07.794Z,29.48
2023-06-21T11:16:07.824Z,28.91
2023-06-21T11:17:07.759Z,29.33
2023-06-21T11:18:07.797Z,28.88
2023-06-21T11:19:07.762Z,28.97
2023-06-21T11:20:07.738Z,28.91
2023-06-21T11:21:07.760Z,28.74
2023-06-21T11:22:09.004Z,28.62
2023-06-21T11:23:08.804Z,29.39
2023-06-21T11:24:07.880Z,29.13
2023-06-21T11:25:07.818Z,28.58
2023-06-21T11:26:07.675Z,28.55
2023-06-21T11:27:07.696Z,28.43
2023-06-21T11:28:07.690Z,29.25
2023-06-21T11:29:08.134Z,29.25
2023-06-21T11:30:07.744Z,28.91
2023-06-21T11:31:07.944Z,29.17
2023-06-21T11:32:08.448Z,28.82
2023-06-21T11:33:07.744Z,27.75
2023-06-21T11:34:08.080Z,28.41
2023-06-21T11:35:07.733Z,28.41
2023-06-21T11:36:08.574Z,28.34
2023-06-21T11:37:07.727Z,29.30
2023-06-21T11:38:07.706Z,28.82
2023-06-21T11:39:07.714Z,28.44
2023-06-21T11:40:07.698Z,29.31
2023-06-21T11:41:07.673Z,29.58
2023-06-21T11:42:07.669Z,29.20
2023-06-21T11:43:07.686Z,29.13
2023-06-21T11:44:07.733Z,29.60
2023-06-21T11:45:07.737Z,29.65
2023-06-21T11:46:07.761Z,30.04
2023-06-21T11:47:07.734Z,29.89
2023-06-21T11:48:07.887Z,29.72
2023-06-21T11:49:08.577Z,30.28
2023-06-21T11:50:07.780Z,29.83
2023-06-21T11:51:07.852Z,29.00
2023-06-21T11:52:07.848Z,28.93
2023-06-21T11:53:07.860Z,29.79
2023-06-21T11:54:07.891Z,29.69
2023-06-21T11:55:07.854Z,29.44
2023-06-21T11:56:07.896Z,29.19
2023-06-21T11:57:07.889Z,29.72
2023-06-21T11:58:07.865Z,30.23
2023-06-21T11:59:07.852Z,30.08
2023-06-21T12:00:07.883Z,30.16
2023-06-21T12:01:07.824Z,30.30
2023-06-21T12:02:07.829Z,29.92
2023-06-21T12:03:08.030Z,29.75
2023-06-21T12:04:07.893Z,29.35
2023-06-21T12:05:08.091Z,29.45
2023-06-21T12:06:07.809Z,29.06
2023-06-21T12:07:07.782Z,28.74
2023-06-21T12:08:07.814Z,28.53
2023-06-21T12:09:07.849Z,28.33
2023-06-21T12:10:07.845Z,28.80
2023-06-21T12:11:07.859Z,29.41
2023-06-21T12:12:07.951Z,29.05
2023-06-21T12:13:07.934Z,28.80
2023-06-21T12:14:07.929Z,28.68
2023-06-21T12:15:07.958Z,28.80
2023-06-21T12:16:08.103Z,29.14
2023-06-21T12:17:07.938Z,29.34
2023-06-21T12:18:08.014Z,29.49
2023-06-21T12:19:07.954Z,29.78
2023-06-21T12:20:08.037Z,29.82
2023-06-21T12:21:08.117Z,29.56
2023-06-21T12:22:08.048Z,29.25
2023-06-21T12:23:08.155Z,29.35
2023-06-21T12:24:08.211Z,29.28
2023-06-21T12:25:08.264Z,29.01
2023-06-21T12:26:08.312Z,28.59
2023-06-21T12:27:08.321Z,28.71
2023-06-21T12:28:08.382Z,28.73
2023-06-21T12:29:08.487Z,28.59
2023-06-21T12:30:08.522Z,29.73
2023-06-21T12:31:08.665Z,29.44
2023-06-21T12:32:08.617Z,29.25
2023-06-21T12:33:08.687Z,29.17
2023-06-21T12:34:08.704Z,30.14
2023-06-21T12:35:08.693Z,30.06
2023-06-21T12:36:08.758Z,30.21
2023-06-21T12:37:08.725Z,30.34
2023-06-21T12:38:08.723Z,29.86
2023-06-21T12:39:08.762Z,29.37
2023-06-21T12:40:08.844Z,29.75
2023-06-21T12:41:08.843Z,29.30
2023-06-21T12:42:08.851Z,29.47
2023-06-21T12:43:08.908Z,29.35
2023-06-21T12:44:08.966Z,29.49
2023-06-21T12:45:08.973Z,30.24
2023-06-21T12:46:08.988Z,30.21
2023-06-21T12:47:08.976Z,30.16
2023-06-21T12:48:09.058Z,30.42
2023-06-21T12:49:09.054Z,31.13
2023-06-21T12:50:09.128Z,31.34
2023-06-21T12:51:11.196Z,31.42
2023-06-21T12:52:09.135Z,31.57
2023-06-21T12:53:09.175Z,32.03
2023-06-21T12:54:09.239Z,32.24
2023-06-21T12:55:09.317Z,32.09
2023-06-21T12:56:09.310Z,32.14
2023-06-21T12:57:09.366Z,31.96
2023-06-21T12:58:09.443Z,31.96
2023-06-21T12:59:09.465Z,31.90
2023-06-21T13:00:09.538Z,31.77